ADDS METAR Data INFO
IDs: Format: Raw Decoded Include TAF

Data at: 1017 UTC 12 Dec 2017

KOMH 120955Z AUTO 00000KT 10SM SCT120 01/M01 A2967 RMK AO2
KOMH 120935Z AUTO 00000KT 10SM SCT120 01/M01 A2967 RMK AO2
KOMH 120915Z AUTO 00000KT 10SM SCT120 01/M01 A2968 RMK AO2
KOMH 120855Z AUTO 00000KT 10SM CLR 01/M01 A2969 RMK AO2
KOMH 120835Z AUTO 00000KT 10SM CLR 01/M01 A2971 RMK AO2
KOMH 120815Z AUTO 00000KT 10SM CLR 01/M01 A2972 RMK AO2
KOMH 120755Z AUTO 00000KT 10SM CLR 01/M01 A2973 RMK AO2
KOMH 120735Z AUTO 00000KT 10SM CLR 01/M02 A2974 RMK AO2
KOMH 120715Z AUTO 00000KT 10SM CLR 01/M02 A2975 RMK AO2
KOMH 120655Z AUTO 00000KT 10SM CLR 02/M02 A2976 RMK AO2
KOMH 120635Z AUTO 00000KT 10SM CLR 02/M02 A2977 RMK AO2
KOMH 120615Z AUTO 18005KT 10SM CLR 02/M02 A2979 RMK AO2
KOMH 120555Z AUTO 17006KT 10SM CLR 01/M02 A2979 RMK AO2
KOMH 120535Z AUTO 00000KT 10SM CLR 01/M02 A2981 RMK AO2
KOMH 120515Z AUTO 00000KT 10SM CLR 01/M02 A2981 RMK AO2
KOMH 120455Z AUTO 00000KT 10SM CLR 01/M02 A2982 RMK AO2
KOMH 120435Z AUTO 00000KT 10SM CLR 00/M02 A2983 RMK AO2
KOMH 120415Z AUTO 15004KT 10SM CLR 01/M02 A2984 RMK AO2
KOMH 120355Z AUTO 00000KT 10SM CLR 01/M02 A2986 RMK AO2
KOMH 120335Z AUTO 00000KT 10SM CLR 00/M03 A2987 RMK AO2
KOMH 120315Z AUTO 00000KT 10SM CLR 00/M03 A2989 RMK AO2
KOMH 120255Z AUTO 00000KT 10SM CLR 00/M03 A2990 RMK AO2
KOMH 120235Z AUTO 00000KT 10SM CLR 00/M03 A2991 RMK AO2
KOMH 120215Z AUTO 00000KT 10SM CLR 01/M03 A2990 RMK AO2
KOMH 120155Z AUTO 00000KT 10SM CLR 00/M03 A2992 RMK AO2
KOMH 120135Z AUTO 00000KT 10SM CLR 00/M03 A2993 RMK AO2
KOMH 120115Z AUTO 00000KT 10SM CLR 01/M03 A2993 RMK AO2
KOMH 120055Z AUTO 00000KT 10SM CLR 02/M03 A2993 RMK AO2
KOMH 120035Z AUTO 00000KT 10SM CLR 03/M03 A2993 RMK AO2
KOMH 120015Z AUTO 00000KT 10SM CLR 05/M03 A2993 RMK AO2
KOMH 112355Z AUTO 00000KT 10SM CLR 03/M03 A2993 RMK AO2
KOMH 112335Z AUTO 00000KT 10SM CLR 04/M03 A2994 RMK AO2
KOMH 112315Z AUTO 00000KT 10SM CLR 05/M03 A2995 RMK AO2
KOMH 112255Z AUTO 00000KT 10SM CLR 05/M03 A2994 RMK AO2
KOMH 112235Z AUTO 00000KT 10SM CLR 05/M03 A2994 RMK AO2
KOMH 112215Z AUTO 00000KT 10SM CLR 06/M03 A2995 RMK AO2
KOMH 112155Z AUTO 00000KT 10SM CLR 07/M03 A2995 RMK AO2
KOMH 112135Z AUTO 00000KT 10SM CLR 08/M04 A2996 RMK AO2
KOMH 112115Z AUTO 19005KT 10SM CLR 08/M03 A2997 RMK AO2
KOMH 112055Z AUTO 00000KT 10SM CLR 08/M04 A2997 RMK AO2
KOMH 112035Z AUTO 19009KT 10SM CLR 08/M04 A2998 RMK AO2
KOMH 112015Z AUTO 16006KT 10SM CLR 09/M04 A2997 RMK AO2
KOMH 111955Z AUTO 00000KT 10SM CLR 09/M04 A2997 RMK AO2
KOMH 111935Z AUTO 00000KT 10SM CLR 09/M04 A3000 RMK AO2
KOMH 111915Z AUTO 22003KT 10SM CLR 09/M04 A3000 RMK AO2
KOMH 111855Z AUTO 00000KT 10SM CLR 08/M04 A2998 RMK AO2
KOMH 111835Z AUTO 00000KT 10SM CLR 08/M03 A2998 RMK AO2
KOMH 111815Z AUTO 00000KT 10SM CLR 08/M04 A2998 RMK AO2
KOMH 111755Z AUTO 00000KT 10SM CLR 08/M03 A3000 RMK AO2
KOMH 111735Z AUTO 22006KT 10SM CLR 08/M04 A3002 RMK AO2
KOMH 111715Z AUTO 21007KT 180V240 10SM CLR 08/M03 A3003 RMK AO2
KOMH 111655Z AUTO 25008KT 10SM CLR 08/M03 A3006 RMK AO2
KOMH 111635Z AUTO 00000KT 10SM CLR 07/M03 A3007 RMK AO2
KOMH 111615Z AUTO 24003KT 10SM CLR 07/M03 A3008 RMK AO2
KOMH 111555Z AUTO 00000KT 10SM CLR 06/M03 A3010 RMK AO2
KOMH 111535Z AUTO 00000KT 10SM CLR 05/M03 A3010 RMK AO2
KOMH 111515Z AUTO 00000KT 10SM CLR 03/M03 A3010 RMK AO2
KOMH 111455Z AUTO 00000KT 10SM CLR 02/M03 A3010 RMK AO2
KOMH 111435Z AUTO 00000KT 10SM CLR 01/M03 A3010 RMK AO2
KOMH 111415Z AUTO 00000KT 10SM CLR 00/M03 A3009 RMK AO2
KOMH 111355Z AUTO 00000KT 10SM CLR 00/M03 A3009 RMK AO2
KOMH 111335Z AUTO 00000KT 10SM CLR M01/M03 A3008 RMK AO2
KOMH 111315Z AUTO 00000KT 10SM CLR M02/M05 A3008 RMK AO2
KOMH 111255Z AUTO 00000KT 10SM CLR M03/M05 A3008 RMK AO2
KOMH 111235Z AUTO 00000KT 10SM CLR M02/M05 A3007 RMK AO2
KOMH 111215Z AUTO 00000KT 10SM CLR M04/M05 A3006 RMK AO2
KOMH 111155Z AUTO 00000KT 10SM CLR M03/M05 A3006 RMK AO2
KOMH 111135Z AUTO 00000KT 10SM CLR M04/M05 A3005 RMK AO2
KOMH 111115Z AUTO 00000KT 10SM CLR M03/M05 A3005 RMK AO2
KOMH 111055Z AUTO 00000KT 10SM CLR M03/M05 A3005 RMK AO2
KOMH 111035Z AUTO 00000KT 10SM CLR M03/M05 A3005 RMK AO2
KOMH 111015Z AUTO 00000KT 10SM CLR M02/M04 A3004 RMK AO2
KOMH 110955Z AUTO 00000KT 10SM CLR M01/M04 A3003 RMK AO2
KOMH 110935Z AUTO 00000KT 10SM CLR M02/M04 A3003 RMK AO2
KOMH 110915Z AUTO 00000KT 10SM CLR M01/M04 A3003 RMK AO2
KOMH 110855Z AUTO 00000KT 10SM CLR M01/M04 A3002 RMK AO2
KOMH 110835Z AUTO 00000KT 10SM CLR M01/M04 A3003 RMK AO2
KOMH 110815Z AUTO 00000KT 10SM CLR 00/M04 A3003 RMK AO2
KOMH 110755Z AUTO 00000KT 10SM CLR 00/M03 A3003 RMK AO2
KOMH 110735Z AUTO 00000KT 10SM SCT110 00/M03 A3003 RMK AO2
KOMH 110715Z AUTO 00000KT 10SM BKN110 00/M03 A3002 RMK AO2
KOMH 110655Z AUTO 20006KT 10SM SCT110 00/M03 A3002 RMK AO2
KOMH 110635Z AUTO 00000KT 10SM SCT090 BKN110 01/M03 A3002 RMK AO2
KOMH 110615Z AUTO 00000KT 10SM BKN090 OVC110 01/M03 A3002 RMK AO2
KOMH 110555Z AUTO 00000KT 10SM OVC100 01/M03 A3003 RMK AO2
KOMH 110535Z AUTO 00000KT 10SM OVC100 01/M03 A3004 RMK AO2
KOMH 110515Z AUTO 21005KT 10SM OVC100 01/M04 A3004 RMK AO2
KOMH 110500Z AUTO 00000KT 10SM OVC100 01/M04 A3004 RMK AO2
KOMH 110435Z AUTO 20005KT 10SM BKN090 OVC110 01/M04 A3004 RMK AO2
KOMH 110415Z AUTO 20003KT 10SM OVC090 01/M04 A3005 RMK AO2
KOMH 110355Z AUTO 00000KT 10SM OVC100 01/M05 A3005 RMK AO2
KOMH 110335Z AUTO 00000KT 10SM OVC100 01/M05 A3005 RMK AO2
KOMH 110315Z AUTO 00000KT 10SM OVC100 01/M05 A3005 RMK AO2
KOMH 110255Z AUTO 00000KT 10SM OVC100 01/M05 A3005 RMK AO2
KOMH 110235Z AUTO 00000KT 10SM OVC100 02/M06 A3005 RMK AO2
KOMH 110215Z AUTO 00000KT 10SM OVC100 02/M06 A3005 RMK AO2
KOMH 110155Z AUTO 00000KT 10SM OVC100 01/M05 A3005 RMK AO2
KOMH 110135Z AUTO 00000KT 10SM BKN100 OVC120 01/M05 A3006 RMK AO2
KOMH 110115Z AUTO 00000KT 10SM OVC100 01/M05 A3006 RMK AO2
KOMH 110055Z AUTO 00000KT 10SM BKN100 BKN120 01/M05 A3006 RMK AO2
KOMH 110035Z AUTO 00000KT 10SM BKN100 BKN120 01/M05 A3006 RMK AO2
KOMH 110020Z AUTO 00000KT 10SM BKN100 OVC120 01/M05 A3006 RMK AO2
KOMH 102355Z AUTO 00000KT 10SM SCT100 00/M04 A3006 RMK AO2
KOMH 102335Z AUTO 00000KT 10SM BKN100 00/M05 A3005 RMK AO2
KOMH 102315Z AUTO 00000KT 10SM SCT100 01/M06 A3005 RMK AO2
KOMH 102255Z AUTO 00000KT 10SM CLR 02/M07 A3005 RMK AO2
KOMH 102235Z AUTO 00000KT 10SM CLR 02/M06 A3005 RMK AO2